createdAt,value
2022-08-16T00:04:06.947Z,7.30
2022-08-16T00:09:43.965Z,7.00
2022-08-16T00:15:52.026Z,7.10
2022-08-16T00:22:03.109Z,7.60
2022-08-16T00:27:47.188Z,7.50
2022-08-16T00:34:04.627Z,8.50
2022-08-16T00:40:33.528Z,8.60
2022-08-16T00:47:05.005Z,10.90
2022-08-16T00:53:21.951Z,10.40
2022-08-16T01:00:10.186Z,9.70
2022-08-16T01:06:40.731Z,9.00
2022-08-16T01:12:26.509Z,10.40
2022-08-16T01:18:40.115Z,9.30
2022-08-16T01:25:37.541Z,9.10
2022-08-16T01:31:23.330Z,7.80
2022-08-16T01:37:17.596Z,8.80
2022-08-16T01:42:50.986Z,9.60
2022-08-16T01:48:20.655Z,8.60
2022-08-16T01:53:54.726Z,10.30
2022-08-16T01:59:33.971Z,10.40
2022-08-16T02:05:12.245Z,9.00
2022-08-16T02:10:42.430Z,10.30
2022-08-16T02:16:23.728Z,10.20
2022-08-16T02:22:34.687Z,10.00
2022-08-16T02:28:08.755Z,10.20
2022-08-16T02:33:59.333Z,9.60
2022-08-16T02:40:05.956Z,9.20
2022-08-16T02:46:33.852Z,9.60
2022-08-16T02:52:00.425Z,9.80
2022-08-16T02:57:53.937Z,10.30
2022-08-16T03:04:40.607Z,9.90
2022-08-16T03:09:32.562Z,10.40
2022-08-16T03:15:08.617Z,9.50
2022-08-16T03:20:57.118Z,9.50
2022-08-16T03:26:19.577Z,10.20
2022-08-16T03:31:52.472Z,9.40
2022-08-16T03:38:01.720Z,10.00
2022-08-16T03:43:51.011Z,9.90
2022-08-16T03:49:15.174Z,9.90
2022-08-16T03:55:06.014Z,10.90
2022-08-16T04:00:41.185Z,9.70
2022-08-16T04:07:07.269Z,10.60
2022-08-16T04:12:59.476Z,10.10
2022-08-16T04:18:25.918Z,10.00
2022-08-16T04:23:52.063Z,10.80
2022-08-16T04:29:44.142Z,10.70
2022-08-16T04:35:49.379Z,10.40
2022-08-16T04:41:46.230Z,10.60
2022-08-16T04:47:21.084Z,11.10
2022-08-16T04:52:55.687Z,11.20
2022-08-16T04:58:45.470Z,12.20
2022-08-16T05:04:19.648Z,12.00
2022-08-16T05:09:48.986Z,12.10
2022-08-16T05:15:33.141Z,13.20
2022-08-16T05:21:13.638Z,10.40
2022-08-16T05:26:51.476Z,11.60
2022-08-16T05:32:32.351Z,11.10
2022-08-16T05:38:33.205Z,12.20
2022-08-16T05:44:27.427Z,13.60
2022-08-16T05:49:54.775Z,13.20
2022-08-16T05:55:24.469Z,12.70
2022-08-16T06:00:50.676Z,13.20
2022-08-16T06:06:31.574Z,14.30
2022-08-16T06:11:57.214Z,13.40
2022-08-16T06:17:24.363Z,13.00
2022-08-16T06:23:40.508Z,12.50
2022-08-16T06:29:20.474Z,13.00
2022-08-16T06:35:17.580Z,12.90
2022-08-16T06:40:49.117Z,10.10
2022-08-16T06:47:03.103Z,10.00
2022-08-16T06:53:00.008Z,9.90
2022-08-16T06:58:37.000Z,9.90
2022-08-16T07:04:12.005Z,10.70
2022-08-16T07:10:57.922Z,9.10
2022-08-16T07:17:23.596Z,8.80
2022-08-16T07:23:37.365Z,10.90
2022-08-16T07:29:28.061Z,8.70
2022-08-16T07:35:12.421Z,11.10
2022-08-16T07:41:00.698Z,10.40
2022-08-16T07:47:16.854Z,18.10
2022-08-16T07:54:20.818Z,16.60
2022-08-16T08:00:18.548Z,13.50
2022-08-16T08:06:36.649Z,13.60
2022-08-16T08:12:36.628Z,8.10
2022-08-16T08:18:56.049Z,9.80
2022-08-16T08:24:44.630Z,7.40
2022-08-16T08:31:01.162Z,8.10
2022-08-16T08:37:08.889Z,8.40
2022-08-16T08:42:49.700Z,7.50
2022-08-16T08:49:01.898Z,7.60
2022-08-16T08:55:39.376Z,9.00
2022-08-16T09:01:36.817Z,8.10
2022-08-16T09:07:33.597Z,8.60
2022-08-16T09:13:24.707Z,8.90
2022-08-16T09:19:32.011Z,8.20
2022-08-16T09:25:13.077Z,6.90
2022-08-16T09:31:20.748Z,7.50
2022-08-16T09:37:17.956Z,7.20
2022-08-16T09:42:59.080Z,7.20
2022-08-16T09:48:51.213Z,7.20
2022-08-16T09:54:45.417Z,6.90
2022-08-16T10:00:42.667Z,8.70
2022-08-16T10:06:34.217Z,12.90
2022-08-16T10:12:43.799Z,10.70
2022-08-16T10:18:56.873Z,8.20
2022-08-16T10:25:00.162Z,10.60
2022-08-16T10:31:05.666Z,9.70
2022-08-16T10:36:39.822Z,11.10
2022-08-16T10:42:01.968Z,10.80
2022-08-16T10:48:00.943Z,8.00
2022-08-16T10:54:00.355Z,9.10
2022-08-16T10:59:38.991Z,7.30
2022-08-16T11:05:21.907Z,7.10
2022-08-16T11:11:19.687Z,8.90
2022-08-16T11:17:02.690Z,8.60
2022-08-16T11:23:22.268Z,7.90
2022-08-16T11:29:14.956Z,9.90
2022-08-16T11:35:14.013Z,9.10
2022-08-16T11:40:52.621Z,7.80
2022-08-16T11:46:46.834Z,9.40
2022-08-16T11:53:03.717Z,6.20
2022-08-16T11:58:59.265Z,7.40
2022-08-16T12:05:15.987Z,7.70
2022-08-16T12:10:45.343Z,6.60
2022-08-16T12:16:11.466Z,6.80
2022-08-16T12:22:05.351Z,5.60
2022-08-16T12:29:12.042Z,7.10
2022-08-16T12:34:37.767Z,7.40
2022-08-16T12:40:37.665Z,7.90
2022-08-16T12:46:26.076Z,7.10
2022-08-16T12:52:32.817Z,6.40
2022-08-16T12:58:48.278Z,7.60
2022-08-16T13:04:35.652Z,8.20
2022-08-16T13:10:48.918Z,4.40
2022-08-16T13:17:06.729Z,4.20
2022-08-16T13:23:36.009Z,4.20
2022-08-16T13:29:24.198Z,5.30
2022-08-16T13:35:56.350Z,5.10
2022-08-16T13:41:26.232Z,7.60
2022-08-16T13:47:39.344Z,8.00
2022-08-16T13:53:24.767Z,3.70
2022-08-16T13:59:51.493Z,4.50
2022-08-16T14:06:23.184Z,3.90
2022-08-16T14:13:28.203Z,8.10
2022-08-16T14:19:24.629Z,6.50
2022-08-16T14:25:28.966Z,5.70
2022-08-16T14:31:28.073Z,4.90
2022-08-16T14:38:39.128Z,5.10
2022-08-16T14:44:07.702Z,5.10
2022-08-16T14:49:36.066Z,6.40
2022-08-16T14:55:31.629Z,5.50
2022-08-16T15:01:57.821Z,5.20
2022-08-16T15:07:47.014Z,6.00
2022-08-16T15:14:03.962Z,5.30
2022-08-16T15:19:30.575Z,6.20
2022-08-16T15:25:29.406Z,7.70
2022-08-16T15:31:14.245Z,6.80
2022-08-16T15:36:45.283Z,6.20
2022-08-16T15:42:33.459Z,7.00
2022-08-16T15:48:28.533Z,6.10
2022-08-16T15:54:29.921Z,6.80
2022-08-16T16:00:15.163Z,6.70
2022-08-16T16:06:02.679Z,6.50
2022-08-16T16:17:25.366Z,7.50
2022-08-16T16:22:57.994Z,7.60
2022-08-16T16:29:06.701Z,8.20
2022-08-16T16:34:13.104Z,7.20
2022-08-16T16:39:45.552Z,7.70
2022-08-16T16:45:15.339Z,8.00
2022-08-16T16:51:11.428Z,7.60
2022-08-16T16:56:49.772Z,7.70
2022-08-16T17:02:38.836Z,7.40
2022-08-16T17:08:24.638Z,8.10
2022-08-16T17:14:06.199Z,7.90
2022-08-16T17:19:59.235Z,7.70
2022-08-16T17:25:55.687Z,8.00
2022-08-16T17:31:41.110Z,8.30
2022-08-16T17:37:12.766Z,8.30
2022-08-16T17:42:47.490Z,8.00
2022-08-16T17:48:35.865Z,9.50
2022-08-16T17:54:04.449Z,8.70
2022-08-16T17:59:31.697Z,9.00
2022-08-16T18:05:23.675Z,8.60
2022-08-16T18:10:53.059Z,8.80
2022-08-16T18:16:17.088Z,8.20
2022-08-16T18:21:59.831Z,8.90
2022-08-16T18:27:32.861Z,10.30
2022-08-16T18:32:58.204Z,10.60
2022-08-16T18:38:44.468Z,10.20
2022-08-16T18:44:25.266Z,9.10
2022-08-16T18:50:09.924Z,10.00
2022-08-16T18:55:36.265Z,10.40
2022-08-16T19:01:36.909Z,11.10
2022-08-16T19:07:11.531Z,12.60
2022-08-16T19:12:59.028Z,10.60
2022-08-16T19:18:57.379Z,10.90
2022-08-16T19:24:44.132Z,10.90
2022-08-16T19:30:13.104Z,11.60
2022-08-16T19:35:51.746Z,12.60
2022-08-16T19:41:28.841Z,12.80
2022-08-16T19:47:10.267Z,11.60
2022-08-16T19:53:19.685Z,12.60
2022-08-16T19:59:18.548Z,13.10
2022-08-16T20:05:05.642Z,14.30
2022-08-16T20:16:01.897Z,12.00
2022-08-16T20:21:37.428Z,14.30
2022-08-16T20:27:33.163Z,12.90
2022-08-16T20:33:11.026Z,13.60
2022-08-16T20:38:52.906Z,14.20
2022-08-16T20:44:48.654Z,17.10
2022-08-16T20:50:13.563Z,17.40
2022-08-16T20:55:52.923Z,16.50
2022-08-16T21:01:50.125Z,15.40
2022-08-16T21:07:51.033Z,14.60
2022-08-16T21:13:18.887Z,14.00
2022-08-16T21:19:02.370Z,13.90
2022-08-16T21:24:25.271Z,14.40
2022-08-16T21:30:00.083Z,13.70
2022-08-16T21:35:50.741Z,13.70
2022-08-16T21:41:15.343Z,13.30
2022-08-16T21:47:23.338Z,14.40
2022-08-16T21:53:31.607Z,13.10
2022-08-16T21:59:11.121Z,13.90
2022-08-16T22:04:39.113Z,14.40
2022-08-16T22:11:07.518Z,14.50
2022-08-16T22:15:52.138Z,15.80
2022-08-16T22:21:22.081Z,15.10
2022-08-16T22:27:09.032Z,14.40
2022-08-16T22:32:53.112Z,16.60
2022-08-16T22:38:55.492Z,15.80
2022-08-16T22:44:30.332Z,15.80
2022-08-16T22:49:59.034Z,16.60
2022-08-16T22:55:35.886Z,16.30
2022-08-16T23:01:06.050Z,16.60
2022-08-16T23:06:31.310Z,15.60
2022-08-16T23:12:13.400Z,16.60
2022-08-16T23:18:02.128Z,16.30
2022-08-16T23:23:49.186Z,17.10
2022-08-16T23:29:26.310Z,15.50
2022-08-16T23:34:53.117Z,15.80
2022-08-16T23:40:31.883Z,16.20
2022-08-16T23:46:03.810Z,16.40
2022-08-16T23:51:49.449Z,16.10
2022-08-16T23:57:15.666Z,16.60
